createdAt,value
2022-10-24T00:01:18.113Z,14.29
2022-10-24T00:04:20.613Z,14.30
2022-10-24T00:07:22.814Z,14.25
2022-10-24T00:10:25.399Z,14.36
2022-10-24T00:13:27.884Z,14.30
2022-10-24T00:16:30.634Z,14.31
2022-10-24T00:19:32.923Z,14.33
2022-10-24T00:22:35.405Z,14.32
2022-10-24T00:25:37.641Z,14.30
2022-10-24T00:28:41.338Z,14.36
2022-10-24T00:31:43.634Z,14.34
2022-10-24T00:34:46.161Z,14.30
2022-10-24T00:37:48.766Z,14.29
2022-10-24T00:40:51.321Z,14.35
2022-10-24T00:44:31.393Z,14.29
2022-10-24T00:47:33.926Z,14.32
2022-10-24T00:50:36.238Z,14.30
2022-10-24T00:53:44.155Z,14.22
2022-10-24T00:56:59.447Z,14.23
2022-10-24T01:00:08.756Z,14.14
2022-10-24T01:03:12.081Z,14.15
2022-10-24T01:06:30.122Z,14.17
2022-10-24T01:09:58.428Z,14.14
2022-10-24T01:13:19.916Z,14.17
2022-10-24T01:16:45.544Z,14.21
2022-10-24T01:20:25.932Z,14.16
2022-10-24T01:23:49.886Z,14.11
2022-10-24T01:27:22.910Z,14.08
2022-10-24T01:30:27.535Z,13.99
2022-10-24T01:33:37.736Z,13.99
2022-10-24T01:36:47.527Z,13.96
2022-10-24T01:39:55.159Z,14.05
2022-10-24T01:43:03.140Z,14.10
2022-10-24T01:46:12.959Z,14.00
2022-10-24T01:49:21.361Z,14.08
2022-10-24T01:52:28.603Z,13.97
2022-10-24T01:55:32.586Z,13.97
2022-10-24T01:58:35.366Z,13.97
2022-10-24T02:01:38.954Z,13.93
2022-10-24T02:04:48.460Z,14.03
2022-10-24T02:07:57.673Z,13.99
2022-10-24T02:11:03.679Z,13.94
2022-10-24T02:14:13.511Z,13.96
2022-10-24T02:17:17.069Z,13.93
2022-10-24T02:20:28.206Z,13.93
2022-10-24T02:23:57.296Z,13.91
2022-10-24T02:27:06.572Z,13.89
2022-10-24T02:30:12.614Z,13.91
2022-10-24T02:33:16.367Z,13.87
2022-10-24T02:36:24.245Z,13.87
2022-10-24T02:39:28.256Z,13.90
2022-10-24T02:42:31.549Z,13.98
2022-10-24T02:45:36.277Z,13.92
2022-10-24T02:48:42.762Z,13.94
2022-10-24T02:51:47.045Z,13.92
2022-10-24T02:54:49.615Z,13.90
2022-10-24T02:57:52.115Z,13.86
2022-10-24T03:00:54.466Z,13.84
2022-10-24T03:03:57.048Z,13.90
2022-10-24T03:06:59.311Z,13.89
2022-10-24T03:10:01.963Z,13.91
2022-10-24T03:13:04.610Z,13.87
2022-10-24T03:16:10.280Z,13.85
2022-10-24T03:19:15.320Z,13.83
2022-10-24T03:22:17.836Z,13.81
2022-10-24T03:25:20.013Z,13.72
2022-10-24T03:28:23.805Z,13.86
2022-10-24T03:31:26.663Z,13.74
2022-10-24T03:34:29.295Z,13.71
2022-10-24T03:37:31.437Z,13.65
2022-10-24T03:40:37.835Z,13.74
2022-10-24T03:43:39.944Z,13.71
2022-10-24T03:46:42.350Z,13.73
2022-10-24T03:49:44.438Z,13.75
2022-10-24T03:52:47.196Z,13.67
2022-10-24T03:55:49.718Z,13.71
2022-10-24T03:58:52.596Z,13.69
2022-10-24T04:01:54.806Z,13.68
2022-10-24T04:04:57.373Z,13.74
2022-10-24T04:07:59.810Z,13.60
2022-10-24T04:11:02.295Z,13.73
2022-10-24T04:14:05.607Z,13.69
2022-10-24T04:17:08.252Z,13.78
2022-10-24T04:20:10.822Z,13.74
2022-10-24T04:23:13.386Z,13.70
2022-10-24T04:26:16.351Z,13.75
2022-10-24T04:29:18.871Z,13.62
2022-10-24T04:32:21.039Z,13.73
2022-10-24T04:35:25.740Z,13.64
2022-10-24T04:38:33.222Z,13.57
2022-10-24T04:41:36.090Z,13.63
2022-10-24T04:44:38.190Z,13.66
2022-10-24T04:47:40.543Z,13.63
2022-10-24T04:50:44.618Z,13.64
2022-10-24T04:53:47.830Z,13.67
2022-10-24T04:56:50.000Z,13.69
2022-10-24T04:59:52.550Z,13.62
2022-10-24T05:02:56.761Z,13.61
2022-10-24T05:06:01.617Z,13.52
2022-10-24T05:09:03.900Z,13.54
2022-10-24T05:12:06.491Z,13.61
2022-10-24T05:15:09.244Z,13.57
2022-10-24T05:18:11.883Z,13.59
2022-10-24T05:21:15.725Z,13.65
2022-10-24T05:24:18.154Z,13.61
2022-10-24T05:27:24.420Z,13.66
2022-10-24T05:30:27.035Z,13.59
2022-10-24T05:33:29.151Z,13.64
2022-10-24T05:36:31.570Z,13.67
2022-10-24T05:39:33.834Z,13.64
2022-10-24T05:42:38.564Z,13.54
2022-10-24T05:45:40.845Z,13.61
2022-10-24T05:48:43.376Z,13.72
2022-10-24T05:51:45.595Z,13.56
2022-10-24T05:54:55.674Z,13.61
2022-10-24T05:58:04.888Z,13.59
2022-10-24T06:01:07.379Z,13.60
2022-10-24T06:04:13.002Z,13.62
2022-10-24T06:07:17.669Z,13.56
2022-10-24T06:10:20.201Z,13.53
2022-10-24T06:13:22.308Z,13.59
2022-10-24T06:16:26.142Z,13.47
2022-10-24T06:19:28.303Z,13.48
2022-10-24T06:22:30.996Z,13.45
2022-10-24T06:25:33.185Z,13.46
2022-10-24T06:28:35.604Z,13.46
2022-10-24T06:31:38.300Z,13.59
2022-10-24T06:34:40.802Z,13.52
2022-10-24T06:37:47.147Z,13.59
2022-10-24T06:40:50.748Z,13.60
2022-10-24T06:43:53.879Z,13.59
2022-10-24T06:46:56.345Z,13.62
2022-10-24T06:49:58.466Z,13.63
2022-10-24T06:53:00.925Z,13.63
2022-10-24T06:56:05.321Z,13.73
2022-10-24T06:59:13.753Z,13.78
2022-10-24T07:02:16.983Z,13.79
2022-10-24T07:05:19.730Z,13.76
2022-10-24T07:08:21.935Z,13.71
2022-10-24T07:11:24.985Z,13.83
2022-10-24T07:14:27.207Z,13.94
2022-10-24T07:17:29.990Z,13.98
2022-10-24T07:20:32.297Z,14.14
2022-10-24T07:23:35.362Z,13.98
2022-10-24T07:26:38.957Z,14.00
2022-10-24T07:29:41.499Z,14.09
2022-10-24T07:32:43.881Z,14.09
2022-10-24T07:35:46.573Z,14.02
2022-10-24T07:38:51.033Z,14.02
2022-10-24T07:41:53.489Z,13.89
2022-10-24T07:44:55.948Z,13.75
2022-10-24T07:47:59.974Z,13.78
2022-10-24T07:51:06.972Z,13.76
2022-10-24T07:54:09.640Z,13.61
2022-10-24T07:57:11.853Z,13.53
2022-10-24T08:00:14.936Z,13.53
2022-10-24T08:03:17.481Z,13.63
2022-10-24T08:06:26.100Z,13.66
2022-10-24T08:09:28.562Z,13.69
2022-10-24T08:12:30.734Z,13.53
2022-10-24T08:15:33.197Z,13.47
2022-10-24T08:18:39.535Z,13.56
2022-10-24T08:21:42.981Z,13.66
2022-10-24T08:24:45.221Z,13.59
2022-10-24T08:27:53.180Z,13.67
2022-10-24T08:31:02.626Z,13.73
2022-10-24T08:34:07.577Z,13.72
2022-10-24T08:37:10.416Z,13.65
2022-10-24T08:40:19.302Z,13.68
2022-10-24T08:43:22.395Z,13.79
2022-10-24T08:46:55.768Z,13.89
2022-10-24T08:50:04.638Z,13.83
2022-10-24T08:53:14.381Z,13.87
2022-10-24T08:56:16.629Z,13.86
2022-10-24T08:59:19.566Z,13.97
2022-10-24T09:02:37.766Z,14.16
2022-10-24T09:05:48.961Z,14.25
2022-10-24T09:09:19.271Z,14.20
2022-10-24T09:12:21.907Z,14.32
2022-10-24T09:15:29.415Z,14.47
2022-10-24T09:18:40.193Z,14.37
2022-10-24T09:21:44.706Z,14.53
2022-10-24T09:24:54.375Z,14.53
2022-10-24T09:27:58.855Z,14.60
2022-10-24T09:31:17.937Z,14.60
2022-10-24T09:34:20.126Z,14.65
2022-10-24T09:38:12.055Z,14.62
2022-10-24T09:41:26.633Z,14.71
2022-10-24T09:44:36.501Z,14.61
2022-10-24T09:47:42.160Z,14.65
2022-10-24T09:50:47.561Z,14.76
2022-10-24T09:54:24.470Z,14.60
2022-10-24T09:57:29.396Z,14.76
2022-10-24T10:00:37.062Z,14.75
2022-10-24T10:03:40.968Z,14.85
2022-10-24T10:06:51.363Z,14.73
2022-10-24T10:10:01.478Z,14.85
2022-10-24T10:13:18.916Z,14.73
2022-10-24T10:16:22.771Z,14.70
2022-10-24T10:19:27.969Z,14.54
2022-10-24T10:22:35.710Z,14.61
2022-10-24T10:25:37.876Z,14.49
2022-10-24T10:29:20.876Z,14.74
2022-10-24T10:32:36.131Z,14.86
2022-10-24T10:35:51.673Z,14.76
2022-10-24T10:39:15.436Z,14.85
2022-10-24T10:42:42.069Z,14.68
2022-10-24T10:45:57.202Z,14.81
2022-10-24T10:49:16.642Z,15.01
2022-10-24T10:52:23.665Z,15.02
2022-10-24T10:55:40.613Z,15.14
2022-10-24T10:58:54.411Z,15.36
2022-10-24T11:02:34.458Z,15.17
2022-10-24T11:05:55.478Z,15.43
2022-10-24T11:09:16.697Z,15.75
2022-10-24T11:12:41.154Z,15.62
2022-10-24T11:15:52.039Z,15.56
2022-10-24T11:37:17.616Z,15.81
2022-10-24T11:40:26.576Z,15.79
2022-10-24T11:43:37.653Z,15.83
2022-10-24T11:46:44.846Z,15.71
2022-10-24T11:49:58.387Z,15.71
2022-10-24T11:53:41.244Z,15.89
2022-10-24T11:56:51.785Z,16.07
2022-10-24T11:59:55.893Z,16.26
2022-10-24T12:03:31.821Z,16.23
2022-10-24T12:07:04.847Z,16.35
2022-10-24T12:10:38.805Z,16.31
2022-10-24T12:14:04.446Z,16.34
2022-10-24T12:17:28.617Z,16.21
2022-10-24T12:20:32.127Z,16.11
2022-10-24T12:23:34.983Z,15.83
2022-10-24T12:26:37.941Z,15.65
2022-10-24T12:29:43.922Z,15.95
2022-10-24T12:32:50.009Z,16.06
2022-10-24T12:35:58.905Z,16.30
2022-10-24T12:39:03.002Z,16.02
2022-10-24T12:42:12.905Z,15.97
2022-10-24T12:45:32.427Z,15.97
2022-10-24T12:48:37.029Z,15.86
2022-10-24T12:51:40.617Z,15.65
2022-10-24T12:54:46.111Z,15.76
2022-10-24T12:57:48.578Z,15.99
2022-10-24T13:00:56.591Z,16.34
2022-10-24T13:04:13.862Z,16.13
2022-10-24T13:07:21.843Z,16.37
2022-10-24T13:10:24.120Z,16.21
2022-10-24T13:13:32.091Z,16.49
2022-10-24T13:16:58.872Z,16.54
2022-10-24T13:20:15.152Z,16.47
2022-10-24T13:23:21.041Z,16.39
2022-10-24T13:26:43.651Z,16.25
2022-10-24T13:29:45.963Z,16.12
2022-10-24T13:32:48.260Z,16.06
2022-10-24T13:35:51.546Z,16.12
2022-10-24T13:39:01.588Z,16.18
2022-10-24T13:42:08.556Z,16.17
2022-10-24T13:45:21.064Z,15.91
2022-10-24T13:48:27.258Z,15.90
2022-10-24T13:51:42.467Z,15.75
2022-10-24T13:54:48.073Z,15.88
2022-10-24T13:58:08.404Z,15.77
2022-10-24T14:01:18.877Z,15.82
2022-10-24T14:04:21.416Z,15.99
2022-10-24T14:07:29.048Z,15.87
2022-10-24T14:10:32.061Z,15.90
2022-10-24T14:13:42.421Z,15.74
2022-10-24T14:16:44.841Z,15.62
2022-10-24T14:20:13.365Z,15.61
2022-10-24T14:23:31.819Z,15.71
2022-10-24T14:26:34.809Z,15.84
2022-10-24T14:29:37.362Z,15.94
2022-10-24T14:32:39.475Z,15.66
2022-10-24T14:35:44.471Z,15.55
2022-10-24T14:38:52.401Z,15.54
2022-10-24T14:41:55.179Z,15.59
2022-10-24T14:44:58.612Z,15.75
2022-10-24T14:48:02.493Z,15.79
2022-10-24T14:51:11.046Z,15.71
2022-10-24T14:54:22.060Z,15.60
2022-10-24T14:57:24.652Z,15.61
2022-10-24T15:00:35.468Z,15.52
2022-10-24T15:03:51.795Z,15.59
2022-10-24T15:06:56.825Z,15.28
2022-10-24T15:10:01.853Z,15.33
2022-10-24T15:13:14.272Z,15.33
2022-10-24T15:16:35.464Z,15.35
2022-10-24T15:19:38.642Z,15.30
2022-10-24T15:22:41.033Z,15.33
2022-10-24T15:25:43.528Z,15.29
2022-10-24T15:28:49.209Z,15.22
2022-10-24T15:31:52.404Z,15.20
2022-10-24T15:34:54.986Z,15.15
2022-10-24T15:37:59.807Z,15.13
2022-10-24T15:41:01.902Z,15.15
2022-10-24T15:44:14.756Z,15.07
2022-10-24T15:47:16.949Z,14.97
2022-10-24T15:50:24.975Z,14.99
2022-10-24T15:53:27.087Z,14.99
2022-10-24T15:56:29.544Z,14.96
2022-10-24T15:59:31.949Z,14.96
2022-10-24T16:02:34.781Z,14.90
2022-10-24T16:05:40.297Z,14.92
2022-10-24T16:08:42.452Z,14.89
2022-10-24T16:11:45.018Z,14.85
2022-10-24T16:14:47.182Z,14.84
2022-10-24T16:17:49.617Z,14.81
2022-10-24T16:20:51.697Z,14.76
2022-10-24T16:23:54.912Z,14.83
2022-10-24T16:26:57.077Z,14.91
2022-10-24T16:29:59.542Z,14.89
2022-10-24T16:33:02.515Z,14.86
2022-10-24T16:36:05.117Z,14.90
2022-10-24T16:39:08.096Z,14.81
2022-10-24T16:42:10.469Z,14.73
2022-10-24T16:45:12.597Z,14.77
2022-10-24T16:48:15.033Z,14.90
2022-10-24T16:51:20.540Z,14.80
2022-10-24T16:54:22.997Z,14.77
2022-10-24T16:57:27.568Z,14.80
2022-10-24T17:00:30.544Z,14.70
2022-10-24T17:03:33.257Z,14.75
2022-10-24T17:06:35.826Z,14.72
2022-10-24T17:09:37.942Z,14.68
2022-10-24T17:12:44.718Z,14.66
2022-10-24T17:15:47.008Z,14.63
2022-10-24T17:19:05.086Z,14.53
2022-10-24T17:22:11.801Z,14.53
2022-10-24T17:25:26.058Z,14.40
2022-10-24T17:28:33.089Z,14.42
2022-10-24T17:31:36.030Z,14.45
2022-10-24T17:34:38.581Z,14.40
2022-10-24T17:38:02.119Z,14.33
2022-10-24T17:41:17.901Z,14.28
2022-10-24T17:44:21.508Z,14.17
2022-10-24T17:47:23.724Z,14.10
2022-10-24T17:50:26.116Z,14.03
2022-10-24T17:53:28.225Z,13.97
2022-10-24T17:56:30.568Z,13.92
2022-10-24T17:59:32.744Z,13.85
2022-10-24T18:02:35.093Z,13.76
2022-10-24T18:05:38.363Z,13.69
2022-10-24T18:08:40.987Z,13.64
2022-10-24T18:11:43.365Z,13.58
2022-10-24T18:14:45.465Z,13.55
2022-10-24T18:17:48.494Z,13.55
2022-10-24T18:20:51.222Z,13.47
2022-10-24T18:23:54.346Z,13.42
2022-10-24T18:26:56.512Z,13.37
2022-10-24T18:29:58.939Z,13.31
2022-10-24T18:33:01.064Z,13.28
2022-10-24T18:36:24.586Z,13.27
2022-10-24T18:39:29.231Z,13.25
2022-10-24T18:42:38.043Z,13.20
2022-10-24T18:45:40.682Z,13.16
2022-10-24T18:48:43.347Z,13.15
2022-10-24T18:52:06.361Z,13.10
2022-10-24T18:55:20.215Z,13.03
2022-10-24T18:58:22.405Z,13.02
2022-10-24T19:01:33.925Z,13.02
2022-10-24T19:04:40.775Z,13.01
2022-10-24T19:07:44.423Z,12.99
2022-10-24T19:10:46.989Z,13.02
2022-10-24T19:13:49.494Z,13.01
2022-10-24T19:16:52.360Z,13.05
2022-10-24T19:19:57.283Z,13.11
2022-10-24T19:23:04.828Z,13.15
2022-10-24T19:26:07.179Z,13.19
2022-10-24T19:29:09.280Z,13.10
2022-10-24T19:32:11.637Z,13.18
2022-10-24T19:35:13.994Z,13.16
2022-10-24T19:38:18.078Z,13.10
2022-10-24T19:41:20.367Z,13.08
2022-10-24T19:44:22.827Z,12.88
2022-10-24T19:47:24.971Z,12.90
2022-10-24T19:50:27.331Z,12.91
2022-10-24T19:53:33.297Z,12.94
2022-10-24T19:56:35.688Z,12.72
2022-10-24T19:59:38.206Z,12.84
2022-10-24T20:02:41.777Z,12.92
2022-10-24T20:05:44.256Z,12.87
2022-10-24T20:08:47.814Z,13.17
2022-10-24T20:11:50.204Z,13.18
2022-10-24T20:14:52.290Z,13.03
2022-10-24T20:17:54.675Z,12.96
2022-10-24T20:20:57.333Z,12.94
2022-10-24T20:23:59.881Z,12.90
2022-10-24T20:27:02.024Z,12.96
2022-10-24T20:30:04.942Z,13.02
2022-10-24T20:33:07.104Z,12.87
2022-10-24T20:36:09.555Z,12.87
2022-10-24T20:39:13.506Z,12.83
2022-10-24T20:42:16.850Z,12.86
2022-10-24T20:45:22.018Z,12.90
2022-10-24T20:48:25.496Z,12.85
2022-10-24T20:51:27.795Z,12.85
2022-10-24T20:54:30.147Z,12.87
2022-10-24T20:57:32.244Z,12.84
2022-10-24T21:00:34.687Z,12.97
2022-10-24T21:03:37.249Z,13.00
2022-10-24T21:06:39.931Z,12.97
2022-10-24T21:09:42.047Z,13.07
2022-10-24T21:12:47.554Z,12.92
2022-10-24T21:15:55.699Z,12.97
2022-10-24T21:18:59.091Z,13.02
2022-10-24T21:22:01.211Z,13.00
2022-10-24T21:25:06.956Z,13.11
2022-10-24T21:28:09.044Z,13.19
2022-10-24T21:31:19.414Z,13.29
2022-10-24T21:34:21.703Z,13.33
2022-10-24T21:37:24.088Z,13.38
2022-10-24T21:40:26.197Z,13.42
2022-10-24T21:43:31.381Z,13.29
2022-10-24T21:46:33.639Z,13.25
2022-10-24T21:49:36.047Z,13.23
2022-10-24T21:52:38.162Z,13.18
2022-10-24T21:55:40.527Z,13.07
2022-10-24T21:58:50.211Z,13.16
2022-10-24T22:01:52.768Z,13.11
2022-10-24T22:04:55.261Z,13.17
2022-10-24T22:07:57.412Z,13.30
2022-10-24T22:11:10.180Z,13.40
2022-10-24T22:14:14.549Z,13.34
2022-10-24T22:17:16.966Z,13.41
2022-10-24T22:20:19.051Z,13.20
2022-10-24T22:23:21.462Z,13.28
2022-10-24T22:26:24.032Z,13.37
2022-10-24T22:29:26.460Z,13.42
2022-10-24T22:32:28.794Z,13.30
2022-10-24T22:35:31.718Z,13.32
2022-10-24T22:38:34.048Z,13.48
2022-10-24T22:41:36.686Z,13.58
2022-10-24T22:44:39.106Z,13.68
2022-10-24T22:47:46.289Z,13.68
2022-10-24T22:50:53.391Z,13.56
2022-10-24T22:53:56.055Z,13.44
2022-10-24T22:56:58.539Z,13.52
2022-10-24T23:00:01.116Z,13.55
2022-10-24T23:03:20.316Z,13.54
2022-10-24T23:06:42.328Z,13.52
2022-10-24T23:09:44.426Z,13.55
2022-10-24T23:12:47.634Z,13.49
2022-10-24T23:15:53.728Z,13.51
2022-10-24T23:18:56.290Z,13.81
2022-10-24T23:22:16.767Z,13.67
2022-10-24T23:25:19.696Z,13.68
2022-10-24T23:28:53.020Z,13.71
2022-10-24T23:31:55.822Z,13.89
2022-10-24T23:34:59.615Z,13.86
2022-10-24T23:38:02.314Z,13.94
2022-10-24T23:41:04.735Z,13.91
2022-10-24T23:44:09.643Z,13.88
2022-10-24T23:47:30.636Z,13.66
2022-10-24T23:50:36.299Z,13.44
2022-10-24T23:53:52.790Z,13.49
2022-10-24T23:56:55.407Z,13.64
2022-10-24T23:59:57.540Z,13.65
